createdAt,value
2018-01-17T00:01:08.654Z,97272.77
2018-01-17T00:03:40.043Z,97272.44
2018-01-17T00:06:12.579Z,97279.78
2018-01-17T00:08:43.794Z,97275.32
2018-01-17T00:11:14.789Z,97277.17
2018-01-17T00:13:46.814Z,97249.23
2018-01-17T00:16:18.851Z,97253.82
2018-01-17T00:18:50.014Z,97259.22
2018-01-17T00:21:22.039Z,97251.63
2018-01-17T00:23:54.061Z,97240.31
2018-01-17T00:26:25.390Z,97236.45
2018-01-17T00:28:57.180Z,97241.65
2018-01-17T00:31:28.369Z,97237.27
2018-01-17T00:34:00.073Z,97236.52
2018-01-17T00:36:32.793Z,97243.19
2018-01-17T00:39:04.474Z,97241.63
2018-01-17T00:41:37.642Z,97240.02
2018-01-17T00:44:09.912Z,97210.45
2018-01-17T00:46:41.969Z,97225.39
2018-01-17T00:49:13.544Z,97251.39
2018-01-17T00:51:45.655Z,97236.52
2018-01-17T00:54:16.919Z,97252.20
2018-01-17T00:56:48.481Z,97262.36
2018-01-17T00:59:21.331Z,97255.05
2018-01-17T01:01:53.319Z,97247.72
2018-01-17T01:04:24.900Z,97225.67
2018-01-17T01:06:56.413Z,97186.50
2018-01-17T01:09:28.071Z,97229.25
2018-01-17T01:12:00.416Z,97235.69
2018-01-17T01:14:34.347Z,97232.34
2018-01-17T01:17:08.137Z,97218.66
2018-01-17T01:19:40.144Z,97211.41
2018-01-17T01:22:12.238Z,97202.45
2018-01-17T01:24:43.842Z,97188.08
2018-01-17T01:27:14.876Z,97201.23
2018-01-17T01:29:46.102Z,97199.86
2018-01-17T01:32:17.724Z,97196.81
2018-01-17T01:34:48.730Z,97231.16
2018-01-17T01:37:20.086Z,97099.33
2018-01-17T01:39:52.080Z,96994.86
2018-01-17T01:42:24.067Z,97191.30
2018-01-17T01:44:56.370Z,97198.75
2018-01-17T01:47:27.324Z,97179.63
2018-01-17T01:49:59.328Z,97191.48
2018-01-17T01:52:31.052Z,97195.30
2018-01-17T01:55:02.902Z,97194.47
2018-01-17T01:57:37.038Z,97190.01
2018-01-17T02:00:07.845Z,97177.43
2018-01-17T02:02:39.872Z,97173.82
2018-01-17T02:05:11.316Z,97175.02
2018-01-17T02:07:43.083Z,97171.98
2018-01-17T02:10:15.430Z,97143.30
2018-01-17T02:12:49.285Z,97167.67
2018-01-17T02:15:21.440Z,97170.05
2018-01-17T02:17:53.463Z,97166.48
2018-01-17T02:20:25.733Z,97165.92
2018-01-17T02:22:57.752Z,97167.68
2018-01-17T02:25:31.218Z,97160.68
2018-01-17T02:28:03.708Z,97152.50
2018-01-17T02:30:36.969Z,97153.98
2018-01-17T02:33:09.361Z,97091.52
2018-01-17T02:35:41.181Z,97167.96
2018-01-17T02:38:13.222Z,97151.65
2018-01-17T02:40:44.249Z,97152.16
2018-01-17T02:43:16.331Z,97108.95
2018-01-17T02:45:48.136Z,97134.02
2018-01-17T02:48:20.211Z,97135.70
2018-01-17T02:50:51.912Z,97125.23
2018-01-17T02:53:23.966Z,97124.25
2018-01-17T02:55:55.842Z,97126.22
2018-01-17T02:58:27.516Z,97115.27
2018-01-17T03:00:59.137Z,97109.49
2018-01-17T03:03:35.203Z,97099.14
2018-01-17T03:06:09.250Z,97107.01
2018-01-17T03:08:41.374Z,97098.41
2018-01-17T03:11:12.667Z,97116.59
2018-01-17T03:13:44.147Z,97114.80
2018-01-17T03:16:15.569Z,97100.94
2018-01-17T03:18:49.124Z,97114.48
2018-01-17T03:21:20.657Z,97112.91
2018-01-17T03:23:52.638Z,97111.17
2018-01-17T03:26:24.399Z,97114.02
2018-01-17T03:28:56.927Z,97114.80
2018-01-17T03:31:28.133Z,97111.23
2018-01-17T03:33:59.832Z,97125.52
2018-01-17T03:36:32.658Z,97085.20
2018-01-17T03:39:05.747Z,97083.95
2018-01-17T03:41:40.267Z,97077.39
2018-01-17T03:44:11.822Z,97072.89
2018-01-17T03:46:45.344Z,97079.88
2018-01-17T03:49:17.733Z,97081.92
2018-01-17T03:51:49.738Z,97087.20
2018-01-17T03:54:22.191Z,97089.85
2018-01-17T03:56:53.796Z,97077.62
2018-01-17T03:59:25.204Z,97097.70
2018-01-17T04:01:57.203Z,97092.56
2018-01-17T04:04:29.165Z,97087.58
2018-01-17T04:07:00.727Z,97099.19
2018-01-17T04:09:34.178Z,97094.34
2018-01-17T04:12:08.839Z,97057.62
2018-01-17T04:14:40.129Z,97097.44
2018-01-17T04:17:12.139Z,97097.37
2018-01-17T04:19:43.890Z,97095.83
2018-01-17T04:22:15.594Z,97085.70
2018-01-17T04:24:46.577Z,97090.62
2018-01-17T04:27:18.108Z,97086.98
2018-01-17T04:29:50.539Z,97096.53
2018-01-17T04:32:22.501Z,97088.75
2018-01-17T04:34:54.348Z,97091.38
2018-01-17T04:37:26.119Z,97078.88
2018-01-17T04:39:57.701Z,97068.45
2018-01-17T04:42:29.291Z,97055.83
2018-01-17T04:45:02.451Z,97064.09
2018-01-17T04:47:35.672Z,97059.61
2018-01-17T04:50:07.525Z,97062.71
2018-01-17T04:52:39.252Z,97018.92
2018-01-17T04:55:10.926Z,97074.55
2018-01-17T04:57:42.657Z,97057.47
2018-01-17T05:00:14.914Z,97082.57
2018-01-17T05:02:46.625Z,97076.47
2018-01-17T05:05:18.244Z,97077.66
2018-01-17T05:07:51.479Z,97070.95
2018-01-17T05:10:23.091Z,97073.55
2018-01-17T05:12:54.878Z,97063.07
2018-01-17T05:15:26.880Z,97080.61
2018-01-17T05:17:57.942Z,97075.81
2018-01-17T05:20:30.038Z,97077.09
2018-01-17T05:23:01.324Z,97072.02
2018-01-17T05:25:35.311Z,97037.31
2018-01-17T05:28:06.633Z,97034.53
2018-01-17T05:30:39.994Z,97061.53
2018-01-17T05:33:11.561Z,97109.33
2018-01-17T05:35:43.763Z,97074.34
2018-01-17T05:38:15.532Z,97061.75
2018-01-17T05:44:21.358Z,97180.14
2018-01-17T05:46:53.206Z,97106.48
2018-01-17T05:49:24.746Z,97077.78
2018-01-17T05:51:55.907Z,97118.61
2018-01-17T05:54:27.472Z,97146.06
2018-01-17T05:56:59.689Z,97152.80
2018-01-17T05:59:33.221Z,97144.64
2018-01-17T06:02:06.680Z,97170.74
2018-01-17T06:04:39.680Z,97178.06
2018-01-17T06:07:11.099Z,97170.57
2018-01-17T06:09:42.078Z,97157.33
2018-01-17T06:12:14.599Z,97169.05
2018-01-17T06:14:46.987Z,97172.44
2018-01-17T06:17:19.214Z,97163.40
2018-01-17T06:19:51.254Z,97174.28
2018-01-17T06:22:34.711Z,97177.77
2018-01-17T06:25:08.953Z,97194.31
2018-01-17T06:27:41.150Z,97191.01
2018-01-17T06:32:48.275Z,97208.03
2018-01-17T06:35:19.467Z,97212.50
2018-01-17T06:37:50.866Z,97177.35
2018-01-17T06:40:22.097Z,97219.80
2018-01-17T06:42:54.275Z,97220.92
2018-01-17T06:45:25.964Z,97222.59
2018-01-17T06:47:59.113Z,97227.27
2018-01-17T06:50:30.177Z,97225.40
2018-01-17T06:53:01.301Z,97225.58
2018-01-17T06:55:33.680Z,97224.67
2018-01-17T06:58:04.921Z,97218.41
2018-01-17T07:00:37.915Z,97222.22
2018-01-17T07:03:10.604Z,97208.94
2018-01-17T07:05:42.285Z,97229.50
2018-01-17T07:08:15.252Z,97239.22
2018-01-17T07:10:47.497Z,97238.03
2018-01-17T07:13:19.678Z,97255.38
2018-01-17T07:15:51.264Z,97251.44
2018-01-17T07:18:22.378Z,97240.12
2018-01-17T07:20:53.887Z,97257.95
2018-01-17T07:23:25.133Z,97262.36
2018-01-17T07:25:58.057Z,97232.45
2018-01-17T07:28:30.268Z,97258.48
2018-01-17T07:31:03.125Z,97261.14
2018-01-17T07:33:36.417Z,97268.42
2018-01-17T07:36:08.119Z,97270.97
2018-01-17T07:38:39.302Z,97277.02
2018-01-17T07:41:11.582Z,97283.09
2018-01-17T07:43:43.144Z,97285.68
2018-01-17T07:46:15.188Z,97287.47
2018-01-17T07:48:47.713Z,97304.20
2018-01-17T07:51:20.326Z,97314.33
2018-01-17T07:53:51.674Z,97322.09
2018-01-17T07:56:22.714Z,97332.89
2018-01-17T07:58:54.697Z,97316.81
2018-01-17T08:01:25.940Z,97361.70
2018-01-17T08:03:58.419Z,97329.36
2018-01-17T08:06:57.533Z,97246.36
2018-01-17T08:13:03.369Z,97363.97
2018-01-17T08:23:11.689Z,97223.17
2018-01-17T08:25:56.445Z,97306.35
2018-01-17T08:30:59.105Z,97408.73
2018-01-17T08:34:11.647Z,97412.95
2018-01-17T08:37:15.813Z,97218.69
2018-01-17T08:39:48.480Z,97421.95
2018-01-17T08:42:23.627Z,97432.66
2018-01-17T08:44:56.815Z,97435.13
2018-01-17T08:47:29.515Z,97438.94
2018-01-17T08:50:00.774Z,97369.91
2018-01-17T08:52:45.886Z,97449.74
2018-01-17T09:01:08.648Z,97464.84
2018-01-17T09:03:52.577Z,97466.78
2018-01-17T09:06:24.225Z,97464.06
2018-01-17T09:08:57.109Z,97484.86
2018-01-17T09:11:28.811Z,97490.21
2018-01-17T09:14:00.159Z,97497.72
2018-01-17T09:16:31.210Z,97505.53
2018-01-17T09:19:04.415Z,97514.77
2018-01-17T09:21:38.842Z,97520.16
2018-01-17T09:24:11.464Z,97523.14
2018-01-17T09:26:42.889Z,97520.10
2018-01-17T09:29:14.222Z,97507.08
2018-01-17T09:31:46.034Z,97532.67
2018-01-17T09:34:17.707Z,97540.38
2018-01-17T09:36:48.770Z,97540.03
2018-01-17T09:39:20.043Z,97539.53
2018-01-17T09:41:52.842Z,97334.78
2018-01-17T09:45:18.004Z,97553.89
2018-01-17T09:47:58.034Z,97570.97
2018-01-17T10:08:13.652Z,97571.97
2018-01-17T10:10:46.668Z,97617.01
2018-01-17T10:13:20.673Z,97611.91
2018-01-17T10:15:52.172Z,97600.14
2018-01-17T10:18:36.137Z,97598.80
2018-01-17T10:21:07.463Z,97560.30
2018-01-17T10:23:39.693Z,97560.11
2018-01-17T10:26:10.896Z,97617.03
2018-01-17T10:28:42.589Z,97592.25
2018-01-17T10:31:14.471Z,97624.09
2018-01-17T10:33:45.931Z,97610.88
2018-01-17T10:36:17.998Z,97613.58
2018-01-17T10:38:58.522Z,97613.43
2018-01-17T10:41:31.359Z,97605.05
2018-01-17T10:44:03.202Z,97664.30
2018-01-17T10:46:36.758Z,97623.30
2018-01-17T10:49:08.190Z,97633.05
2018-01-17T10:51:39.496Z,97638.21
2018-01-17T10:54:10.805Z,97646.05
2018-01-17T10:56:42.408Z,97640.85
2018-01-17T10:59:13.441Z,97636.13
2018-01-17T11:01:44.626Z,97640.52
2018-01-17T11:04:15.712Z,97637.54
2018-01-17T11:06:47.205Z,97647.73
2018-01-17T11:09:19.086Z,97647.96
2018-01-17T11:11:50.922Z,97655.00
2018-01-17T11:14:22.059Z,97655.63
2018-01-17T11:16:53.285Z,97647.17
2018-01-17T11:19:25.167Z,97656.17
2018-01-17T11:21:56.390Z,97648.00
2018-01-17T11:24:28.652Z,97598.40
2018-01-17T11:28:00.293Z,97649.39
2018-01-17T11:30:38.983Z,97638.20
2018-01-17T11:33:10.349Z,97662.48
2018-01-17T11:35:43.155Z,97617.91
2018-01-17T11:38:14.572Z,97647.25
2018-01-17T11:40:45.722Z,97672.67
2018-01-17T11:43:18.475Z,97700.75
2018-01-17T11:45:49.726Z,97711.41
2018-01-17T11:48:22.865Z,97617.33
2018-01-17T11:50:54.540Z,97662.45
2018-01-17T11:53:25.735Z,97681.89
2018-01-17T11:55:57.137Z,97704.27
2018-01-17T11:58:30.550Z,97481.89
2018-01-17T12:01:01.813Z,97707.56
2018-01-17T12:03:36.228Z,97721.47
2018-01-17T12:06:09.424Z,97720.25
2018-01-17T12:08:41.730Z,97730.78
2018-01-17T12:11:14.634Z,97762.63
2018-01-17T12:13:46.591Z,97754.16
2018-01-17T12:16:18.022Z,97756.91
2018-01-17T12:18:50.762Z,97601.46
2018-01-17T12:21:22.752Z,97766.91
2018-01-17T12:23:54.136Z,97662.72
2018-01-17T12:26:25.770Z,97778.02
2018-01-17T12:28:57.439Z,97778.13
2018-01-17T12:31:45.582Z,97784.28
2018-01-17T12:34:17.915Z,97778.91
2018-01-17T12:36:49.194Z,97786.53
2018-01-17T12:39:21.292Z,97783.95
2018-01-17T12:41:52.916Z,97795.20
2018-01-17T12:44:24.664Z,97811.16
2018-01-17T12:46:55.771Z,97820.87
2018-01-17T12:49:26.893Z,97808.83
2018-01-17T12:51:58.246Z,97811.41
2018-01-17T12:54:29.329Z,97815.22
2018-01-17T12:57:01.002Z,97578.09
2018-01-17T12:59:39.172Z,97812.41
2018-01-17T13:02:30.289Z,97647.25
2018-01-17T13:05:02.212Z,97823.92
2018-01-17T13:07:35.473Z,97807.31
2018-01-17T13:16:40.658Z,97701.31
2018-01-17T13:19:20.983Z,97718.27
2018-01-17T13:21:53.900Z,97846.61
2018-01-17T13:24:26.070Z,97843.15
2018-01-17T13:27:12.766Z,97852.46
2018-01-17T13:32:29.557Z,97859.56
2018-01-17T13:35:00.899Z,97806.09
2018-01-17T13:37:34.417Z,97857.70
2018-01-17T13:40:07.064Z,97868.18
2018-01-17T13:42:40.498Z,97856.51
2018-01-17T13:45:12.407Z,97911.17
2018-01-17T13:47:43.621Z,97879.53
2018-01-17T13:50:14.840Z,97861.20
2018-01-17T13:52:47.536Z,97870.31
2018-01-17T13:55:18.820Z,97900.95
2018-01-17T13:57:50.326Z,97880.91
2018-01-17T14:00:22.023Z,97809.81
2018-01-17T14:02:53.567Z,97868.39
2018-01-17T14:05:24.872Z,97863.76
2018-01-17T14:07:56.454Z,97884.45
2018-01-17T14:10:27.874Z,97880.63
2018-01-17T14:12:59.588Z,97912.50
2018-01-17T14:15:30.931Z,97871.39
2018-01-17T14:18:03.803Z,97871.62
2018-01-17T14:20:38.325Z,97876.13
2018-01-17T14:23:10.248Z,97888.68
2018-01-17T14:25:41.508Z,97902.83
2018-01-17T14:28:12.918Z,97849.06
2018-01-17T14:30:44.442Z,97895.24
2018-01-17T14:33:15.653Z,97892.66
2018-01-17T14:35:47.037Z,97917.86
2018-01-17T14:38:18.781Z,97907.61
2018-01-17T14:40:50.229Z,97901.71
2018-01-17T14:43:21.771Z,97824.80
2018-01-17T14:45:53.473Z,97918.95
2018-01-17T14:48:25.042Z,97908.20
2018-01-17T14:50:56.582Z,97895.19
2018-01-17T14:53:27.921Z,97916.25
2018-01-17T14:55:59.832Z,97922.56
2018-01-17T14:58:31.439Z,97927.70
2018-01-17T15:01:02.950Z,97924.42
2018-01-17T15:03:34.550Z,97925.04
2018-01-17T15:06:06.258Z,97932.00
2018-01-17T15:08:39.614Z,97937.38
2018-01-17T15:11:11.133Z,97941.30
2018-01-17T15:13:44.417Z,98002.34
2018-01-17T15:16:16.359Z,97948.62
2018-01-17T15:18:48.023Z,97949.95
2018-01-17T15:21:19.917Z,97954.44
2018-01-17T15:23:51.654Z,97954.80
2018-01-17T15:26:23.821Z,97852.16
2018-01-17T15:28:55.964Z,97950.80
2018-01-17T15:31:46.426Z,97950.47
2018-01-17T15:34:26.624Z,97965.58
2018-01-17T15:36:59.197Z,97958.92
2018-01-17T15:39:30.497Z,97925.81
2018-01-17T15:42:02.419Z,97963.22
2018-01-17T15:44:34.861Z,97971.13
2018-01-17T15:47:06.443Z,97970.34
2018-01-17T15:49:46.085Z,97767.83
2018-01-17T15:54:59.596Z,97908.12
2018-01-17T15:57:32.043Z,97976.31
2018-01-17T16:00:03.371Z,97978.45
2018-01-17T16:05:42.482Z,97976.04
2018-01-17T16:08:13.731Z,97980.06
2018-01-17T16:10:44.968Z,98016.91
2018-01-17T16:13:16.514Z,97966.85
2018-01-17T16:15:48.429Z,97976.95
2018-01-17T16:18:22.358Z,97738.28
2018-01-17T16:20:54.288Z,97958.67
2018-01-17T16:23:25.471Z,97963.22
2018-01-17T16:25:56.684Z,97960.03
2018-01-17T16:28:28.501Z,97964.17
2018-01-17T16:30:59.958Z,97963.52
2018-01-17T16:33:36.063Z,97969.52
2018-01-17T16:36:10.641Z,97973.09
2018-01-17T16:38:42.045Z,97967.68
2018-01-17T16:41:17.842Z,97944.84
2018-01-17T16:43:50.468Z,97971.09
2018-01-17T16:46:22.517Z,97968.66
2018-01-17T16:48:54.907Z,97983.31
2018-01-17T16:51:27.327Z,97988.51
2018-01-17T16:53:59.945Z,97972.09
2018-01-17T16:57:10.938Z,97984.75
2018-01-17T16:59:45.767Z,98005.41
2018-01-17T17:02:17.242Z,97997.16
2018-01-17T17:05:00.324Z,97993.91
2018-01-17T17:07:34.030Z,98025.16
2018-01-17T17:10:06.102Z,98045.41
2018-01-17T17:12:40.434Z,98037.03
2018-01-17T17:15:14.692Z,98007.87
2018-01-17T17:17:46.411Z,98034.70
2018-01-17T17:20:18.676Z,98027.66
2018-01-17T17:22:50.080Z,98039.32
2018-01-17T17:25:21.382Z,98037.93
2018-01-17T17:27:55.772Z,98030.22
2018-01-17T17:30:28.465Z,98042.27
2018-01-17T17:33:03.773Z,98058.81
2018-01-17T17:35:41.994Z,98084.70
2018-01-17T17:38:14.747Z,98059.89
2018-01-17T17:40:47.087Z,98059.00
2018-01-17T17:43:20.248Z,98046.48
2018-01-17T17:45:52.710Z,98029.13
2018-01-17T17:48:25.519Z,98107.03
2018-01-17T17:50:58.830Z,98105.25
2018-01-17T17:53:31.126Z,98093.88
2018-01-17T17:56:10.862Z,98100.06
2018-01-17T17:58:44.226Z,98099.16
2018-01-17T18:01:16.334Z,98114.33
2018-01-17T18:03:48.368Z,98126.19
2018-01-17T18:06:21.054Z,98109.55
2018-01-17T18:08:52.968Z,98123.78
2018-01-17T18:11:24.307Z,98122.59
2018-01-17T18:13:55.824Z,98132.03
2018-01-17T18:16:27.497Z,98138.62
2018-01-17T18:18:59.115Z,98145.28
2018-01-17T18:21:30.789Z,98138.02
2018-01-17T18:24:02.221Z,98032.64
2018-01-17T18:26:34.120Z,98184.97
2018-01-17T18:31:26.354Z,98161.97
2018-01-17T18:33:57.940Z,98165.33
2018-01-17T18:36:29.310Z,98167.42
2018-01-17T18:39:01.196Z,98176.70
2018-01-17T18:41:35.775Z,98186.17
2018-01-17T18:44:09.683Z,98189.94
2018-01-17T18:46:43.931Z,98212.46
2018-01-17T18:49:17.515Z,98207.95
2018-01-17T18:51:51.133Z,98206.31
2018-01-17T18:54:24.981Z,98215.64
2018-01-17T18:56:57.114Z,98138.19
2018-01-17T18:59:28.718Z,98233.13
2018-01-17T19:02:00.277Z,98184.01
2018-01-17T19:04:36.178Z,98259.98
2018-01-17T19:07:08.213Z,98248.42
2018-01-17T19:09:39.840Z,98258.91
2018-01-17T19:12:11.856Z,98267.56
2018-01-17T19:14:46.142Z,98262.11
2018-01-17T19:17:25.177Z,98263.92
2018-01-17T19:19:56.746Z,98264.13
2018-01-17T19:22:29.364Z,98292.52
2018-01-17T19:25:01.104Z,98283.37
2018-01-17T19:27:38.472Z,98313.73
2018-01-17T19:30:11.818Z,98314.04
2018-01-17T19:32:43.685Z,98318.52
2018-01-17T19:35:15.400Z,98165.68
2018-01-17T19:37:48.774Z,98323.48
2018-01-17T19:40:26.753Z,98345.16
2018-01-17T19:43:00.615Z,98337.34
2018-01-17T19:45:35.915Z,98337.72
2018-01-17T19:48:08.773Z,98345.28
2018-01-17T19:50:40.180Z,98356.41
2018-01-17T19:53:11.767Z,98424.61
2018-01-17T19:55:43.272Z,98344.67
2018-01-17T19:58:15.646Z,98355.12
2018-01-17T20:00:47.398Z,98333.38
2018-01-17T20:03:19.018Z,98366.12
2018-01-17T20:05:50.689Z,98374.84
2018-01-17T20:08:22.642Z,98369.56
2018-01-17T20:10:54.432Z,98368.27
2018-01-17T20:13:26.906Z,98369.43
2018-01-17T20:15:58.058Z,98356.05
2018-01-17T20:18:30.929Z,98360.68
2018-01-17T20:21:02.723Z,98372.77
2018-01-17T20:23:37.085Z,98386.35
2018-01-17T20:26:08.777Z,98382.03
2018-01-17T20:28:39.922Z,98395.09
2018-01-17T20:31:12.439Z,98387.95
2018-01-17T20:33:44.173Z,98350.61
2018-01-17T20:36:17.187Z,98376.36
2018-01-17T20:38:50.126Z,98313.71
2018-01-17T20:41:22.855Z,98383.05
2018-01-17T20:43:55.496Z,98381.90
2018-01-17T20:46:26.651Z,98400.52
2018-01-17T20:48:58.778Z,98409.61
2018-01-17T20:51:29.913Z,98390.87
2018-01-17T20:54:01.234Z,98405.22
2018-01-17T20:56:36.590Z,98405.04
2018-01-17T20:59:09.428Z,98268.92
2018-01-17T21:01:41.385Z,98340.27
2018-01-17T21:04:22.550Z,98395.58
2018-01-17T21:06:53.894Z,98395.06
2018-01-17T21:09:26.501Z,98415.98
2018-01-17T21:11:58.282Z,98417.95
2018-01-17T21:14:29.664Z,98419.88
2018-01-17T21:17:02.076Z,98406.02
2018-01-17T21:19:36.086Z,98380.54
2018-01-17T21:22:08.542Z,98398.80
2018-01-17T21:24:40.942Z,98125.11
2018-01-17T21:27:12.171Z,98409.20
2018-01-17T21:29:45.478Z,98400.25
2018-01-17T21:32:17.231Z,98431.31
2018-01-17T21:34:48.497Z,98442.50
2018-01-17T21:37:22.512Z,98381.56
2018-01-17T21:39:55.014Z,98406.70
2018-01-17T21:42:30.225Z,98442.92
2018-01-17T21:46:08.857Z,98445.53
2018-01-17T21:48:39.959Z,98330.46
2018-01-17T21:51:11.822Z,98451.19
2018-01-17T21:53:44.321Z,98456.50
2018-01-17T21:56:15.948Z,98472.11
2018-01-17T21:58:47.213Z,98472.80
2018-01-17T22:01:28.431Z,98457.98
2018-01-17T22:04:01.292Z,98373.80
2018-01-17T22:06:36.301Z,98455.41
2018-01-17T22:09:09.424Z,98465.45
2018-01-17T22:11:42.243Z,98449.94
2018-01-17T22:14:13.739Z,98468.97
2018-01-17T22:16:46.764Z,98466.38
2018-01-17T22:19:20.872Z,98464.84
2018-01-17T22:21:52.714Z,98472.80
2018-01-17T22:24:24.624Z,98476.25
2018-01-17T22:26:58.223Z,98469.88
2018-01-17T22:29:31.338Z,98471.68
2018-01-17T22:32:04.446Z,98472.11
2018-01-17T22:34:38.832Z,98470.16
2018-01-17T22:37:10.410Z,98485.31
2018-01-17T22:39:42.042Z,98513.13
2018-01-17T22:42:13.785Z,98492.69
2018-01-17T22:44:45.901Z,98486.33
2018-01-17T22:47:18.267Z,98484.70
2018-01-17T22:49:51.099Z,98492.84
2018-01-17T22:52:22.662Z,98494.66
2018-01-17T22:54:54.729Z,98504.71
2018-01-17T22:57:25.978Z,98499.00
2018-01-17T22:59:57.643Z,98505.05
2018-01-17T23:02:31.611Z,98549.02
2018-01-17T23:05:08.628Z,98528.96
2018-01-17T23:07:40.308Z,98493.29
2018-01-17T23:10:13.096Z,98558.24
2018-01-17T23:12:44.656Z,98508.42
2018-01-17T23:15:16.726Z,98481.36
2018-01-17T23:17:48.730Z,98513.73
2018-01-17T23:20:20.075Z,98507.05
2018-01-17T23:22:51.836Z,98507.67
2018-01-17T23:25:23.773Z,98504.86
2018-01-17T23:27:54.995Z,98504.28
2018-01-17T23:30:26.153Z,98497.90
2018-01-17T23:32:57.894Z,98501.98
2018-01-17T23:35:29.138Z,98496.28
2018-01-17T23:38:00.260Z,98494.71
2018-01-17T23:40:33.486Z,98494.99
